sensor_id;sensor_type;location;lat;lon;timestamp;P1;durP1;ratioP1;P2;durP2;ratioP2
32172;SDS011;18679;45.190;5.722;2022-10-31T00:01:37;16.38;;;4.68;;
32172;SDS011;18679;45.190;5.722;2022-10-31T00:04:38;13.38;;;5.45;;
32172;SDS011;18679;45.190;5.722;2022-10-31T00:07:39;18.55;;;6.22;;
32172;SDS011;18679;45.190;5.722;2022-10-31T00:10:40;13.10;;;5.40;;
32172;SDS011;18679;45.190;5.722;2022-10-31T00:13:42;20.27;;;5.70;;
32172;SDS011;18679;45.190;5.722;2022-10-31T00:16:43;15.15;;;5.13;;
32172;SDS011;18679;45.190;5.722;2022-10-31T00:19:44;19.08;;;5.43;;
32172;SDS011;18679;45.190;5.722;2022-10-31T00:22:44;17.23;;;5.22;;
32172;SDS011;18679;45.190;5.722;2022-10-31T00:25:45;13.48;;;5.70;;
32172;SDS011;18679;45.190;5.722;2022-10-31T00:28:46;13.40;;;5.47;;
32172;SDS011;18679;45.190;5.722;2022-10-31T00:31:47;21.02;;;6.25;;
32172;SDS011;18679;45.190;5.722;2022-10-31T00:34:48;11.98;;;5.00;;
32172;SDS011;18679;45.190;5.722;2022-10-31T00:37:48;13.68;;;5.10;;
32172;SDS011;18679;45.190;5.722;2022-10-31T00:40:50;22.02;;;6.05;;
32172;SDS011;18679;45.190;5.722;2022-10-31T00:43:51;15.90;;;5.05;;
32172;SDS011;18679;45.190;5.722;2022-10-31T00:46:51;13.13;;;5.18;;
32172;SDS011;18679;45.190;5.722;2022-10-31T00:49:55;16.15;;;5.43;;
32172;SDS011;18679;45.190;5.722;2022-10-31T00:52:56;12.43;;;5.78;;
32172;SDS011;18679;45.190;5.722;2022-10-31T00:55:58;22.02;;;5.78;;
32172;SDS011;18679;45.190;5.722;2022-10-31T00:58:58;14.35;;;5.13;;
32172;SDS011;18679;45.190;5.722;2022-10-31T01:01:59;12.05;;;5.43;;
32172;SDS011;18679;45.190;5.722;2022-10-31T01:05:00;10.52;;;4.82;;
32172;SDS011;18679;45.190;5.722;2022-10-31T01:08:01;12.63;;;4.55;;
32172;SDS011;18679;45.190;5.722;2022-10-31T01:14:06;25.05;;;5.32;;
32172;SDS011;18679;45.190;5.722;2022-10-31T01:17:08;9.43;;;4.70;;
32172;SDS011;18679;45.190;5.722;2022-10-31T01:20:09;16.30;;;5.25;;
32172;SDS011;18679;45.190;5.722;2022-10-31T01:23:11;14.70;;;4.75;;
32172;SDS011;18679;45.190;5.722;2022-10-31T01:26:18;18.48;;;5.22;;
32172;SDS011;18679;45.190;5.722;2022-10-31T01:29:24;13.95;;;4.93;;
32172;SDS011;18679;45.190;5.722;2022-10-31T01:32:24;12.80;;;5.20;;
32172;SDS011;18679;45.190;5.722;2022-10-31T01:35:28;7.20;;;4.32;;
32172;SDS011;18679;45.190;5.722;2022-10-31T01:38:30;15.18;;;4.93;;
32172;SDS011;18679;45.190;5.722;2022-10-31T01:41:32;11.65;;;5.05;;
32172;SDS011;18679;45.190;5.722;2022-10-31T01:47:40;11.07;;;4.78;;
32172;SDS011;18679;45.190;5.722;2022-10-31T01:50:45;11.20;;;4.78;;
32172;SDS011;18679;45.190;5.722;2022-10-31T01:53:48;10.73;;;4.45;;
32172;SDS011;18679;45.190;5.722;2022-10-31T01:56:53;8.90;;;4.78;;
32172;SDS011;18679;45.190;5.722;2022-10-31T01:59:57;14.60;;;4.70;;
32172;SDS011;18679;45.190;5.722;2022-10-31T02:03:13;12.75;;;4.15;;
32172;SDS011;18679;45.190;5.722;2022-10-31T02:06:22;13.48;;;5.07;;
32172;SDS011;18679;45.190;5.722;2022-10-31T02:09:48;9.23;;;4.53;;
32172;SDS011;18679;45.190;5.722;2022-10-31T02:12:51;17.08;;;5.45;;
32172;SDS011;18679;45.190;5.722;2022-10-31T02:15:55;12.82;;;4.65;;
32172;SDS011;18679;45.190;5.722;2022-10-31T02:18:57;17.92;;;4.63;;
32172;SDS011;18679;45.190;5.722;2022-10-31T02:25:44;13.38;;;4.43;;
32172;SDS011;18679;45.190;5.722;2022-10-31T02:29:16;19.65;;;4.70;;
32172;SDS011;18679;45.190;5.722;2022-10-31T02:39:18;15.85;;;4.68;;
32172;SDS011;18679;45.190;5.722;2022-10-31T02:45:46;18.80;;;4.95;;
32172;SDS011;18679;45.190;5.722;2022-10-31T02:48:55;14.15;;;4.43;;
32172;SDS011;18679;45.190;5.722;2022-10-31T02:52:00;11.32;;;4.70;;
32172;SDS011;18679;45.190;5.722;2022-10-31T02:58:31;14.98;;;4.63;;
32172;SDS011;18679;45.190;5.722;2022-10-31T03:05:19;13.93;;;4.32;;
32172;SDS011;18679;45.190;5.722;2022-10-31T03:08:24;8.52;;;4.30;;
32172;SDS011;18679;45.190;5.722;2022-10-31T03:11:56;16.77;;;4.35;;
32172;SDS011;18679;45.190;5.722;2022-10-31T03:15:10;9.85;;;4.43;;
32172;SDS011;18679;45.190;5.722;2022-10-31T03:18:15;9.65;;;4.70;;
32172;SDS011;18679;45.190;5.722;2022-10-31T03:21:28;9.88;;;4.20;;
32172;SDS011;18679;45.190;5.722;2022-10-31T03:24:35;15.05;;;4.80;;
32172;SDS011;18679;45.190;5.722;2022-10-31T03:27:38;11.15;;;4.30;;
32172;SDS011;18679;45.190;5.722;2022-10-31T03:30:42;12.25;;;4.68;;
32172;SDS011;18679;45.190;5.722;2022-10-31T03:33:45;12.40;;;4.10;;
32172;SDS011;18679;45.190;5.722;2022-10-31T03:36:48;14.88;;;4.72;;
32172;SDS011;18679;45.190;5.722;2022-10-31T03:39:52;16.85;;;4.38;;
32172;SDS011;18679;45.190;5.722;2022-10-31T03:43:00;10.50;;;4.63;;
32172;SDS011;18679;45.190;5.722;2022-10-31T03:46:06;15.05;;;4.43;;
32172;SDS011;18679;45.190;5.722;2022-10-31T03:49:07;12.10;;;4.68;;
32172;SDS011;18679;45.190;5.722;2022-10-31T03:55:19;18.17;;;4.63;;
32172;SDS011;18679;45.190;5.722;2022-10-31T03:58:34;13.23;;;4.65;;
32172;SDS011;18679;45.190;5.722;2022-10-31T04:01:49;12.18;;;5.05;;
32172;SDS011;18679;45.190;5.722;2022-10-31T04:04:53;14.88;;;4.78;;
32172;SDS011;18679;45.190;5.722;2022-10-31T04:07:55;10.50;;;4.30;;
32172;SDS011;18679;45.190;5.722;2022-10-31T04:10:59;14.70;;;5.60;;
32172;SDS011;18679;45.190;5.722;2022-10-31T04:14:02;10.68;;;4.80;;
32172;SDS011;18679;45.190;5.722;2022-10-31T04:17:09;14.23;;;5.25;;
32172;SDS011;18679;45.190;5.722;2022-10-31T04:20:15;13.27;;;4.80;;
32172;SDS011;18679;45.190;5.722;2022-10-31T04:23:22;17.88;;;5.13;;
32172;SDS011;18679;45.190;5.722;2022-10-31T04:26:25;14.10;;;4.22;;
32172;SDS011;18679;45.190;5.722;2022-10-31T04:29:26;16.65;;;4.82;;
32172;SDS011;18679;45.190;5.722;2022-10-31T04:32:27;17.48;;;4.90;;
32172;SDS011;18679;45.190;5.722;2022-10-31T04:35:29;11.40;;;4.32;;
32172;SDS011;18679;45.190;5.722;2022-10-31T04:38:30;13.88;;;5.07;;
32172;SDS011;18679;45.190;5.722;2022-10-31T04:41:31;21.80;;;5.40;;
32172;SDS011;18679;45.190;5.722;2022-10-31T04:44:35;12.18;;;4.85;;
32172;SDS011;18679;45.190;5.722;2022-10-31T04:47:37;14.60;;;5.07;;
32172;SDS011;18679;45.190;5.722;2022-10-31T04:50:38;8.80;;;4.00;;
32172;SDS011;18679;45.190;5.722;2022-10-31T04:53:38;14.07;;;4.85;;
32172;SDS011;18679;45.190;5.722;2022-10-31T04:56:58;14.18;;;5.00;;
32172;SDS011;18679;45.190;5.722;2022-10-31T05:00:00;12.98;;;4.90;;
32172;SDS011;18679;45.190;5.722;2022-10-31T05:03:01;14.10;;;4.40;;
32172;SDS011;18679;45.190;5.722;2022-10-31T05:06:02;10.55;;;4.35;;
32172;SDS011;18679;45.190;5.722;2022-10-31T05:09:03;10.90;;;4.57;;
32172;SDS011;18679;45.190;5.722;2022-10-31T05:12:04;10.82;;;5.28;;
32172;SDS011;18679;45.190;5.722;2022-10-31T05:15:24;10.82;;;5.57;;
32172;SDS011;18679;45.190;5.722;2022-10-31T05:19:04;10.90;;;5.18;;
32172;SDS011;18679;45.190;5.722;2022-10-31T05:22:41;10.48;;;4.43;;
32172;SDS011;18679;45.190;5.722;2022-10-31T05:25:55;12.30;;;4.68;;
32172;SDS011;18679;45.190;5.722;2022-10-31T05:28:56;20.55;;;5.15;;
32172;SDS011;18679;45.190;5.722;2022-10-31T05:31:57;14.55;;;4.80;;
32172;SDS011;18679;45.190;5.722;2022-10-31T05:35:22;8.05;;;4.40;;
32172;SDS011;18679;45.190;5.722;2022-10-31T05:38:49;8.85;;;4.72;;
32172;SDS011;18679;45.190;5.722;2022-10-31T05:42:11;9.95;;;3.97;;
32172;SDS011;18679;45.190;5.722;2022-10-31T05:45:15;19.63;;;5.03;;
32172;SDS011;18679;45.190;5.722;2022-10-31T05:48:26;11.73;;;4.32;;
32172;SDS011;18679;45.190;5.722;2022-10-31T05:52:05;18.93;;;4.83;;
32172;SDS011;18679;45.190;5.722;2022-10-31T05:55:14;16.20;;;4.63;;
32172;SDS011;18679;45.190;5.722;2022-10-31T05:58:28;16.17;;;5.10;;
32172;SDS011;18679;45.190;5.722;2022-10-31T06:01:38;16.25;;;4.70;;
32172;SDS011;18679;45.190;5.722;2022-10-31T06:04:46;14.57;;;4.45;;
32172;SDS011;18679;45.190;5.722;2022-10-31T06:07:47;12.43;;;4.70;;
32172;SDS011;18679;45.190;5.722;2022-10-31T06:10:48;14.52;;;5.10;;
32172;SDS011;18679;45.190;5.722;2022-10-31T06:13:54;12.45;;;5.13;;
32172;SDS011;18679;45.190;5.722;2022-10-31T06:16:59;11.63;;;4.82;;
32172;SDS011;18679;45.190;5.722;2022-10-31T06:20:18;17.77;;;4.47;;
32172;SDS011;18679;45.190;5.722;2022-10-31T06:23:29;12.68;;;4.90;;
32172;SDS011;18679;45.190;5.722;2022-10-31T06:26:49;15.52;;;4.78;;
32172;SDS011;18679;45.190;5.722;2022-10-31T06:29:50;8.38;;;4.47;;
32172;SDS011;18679;45.190;5.722;2022-10-31T06:33:03;9.30;;;4.35;;
32172;SDS011;18679;45.190;5.722;2022-10-31T06:36:05;10.73;;;4.60;;
32172;SDS011;18679;45.190;5.722;2022-10-31T06:39:06;14.00;;;4.40;;
32172;SDS011;18679;45.190;5.722;2022-10-31T06:42:07;13.50;;;4.80;;
32172;SDS011;18679;45.190;5.722;2022-10-31T06:45:08;9.55;;;4.78;;
32172;SDS011;18679;45.190;5.722;2022-10-31T06:48:41;17.83;;;4.85;;
32172;SDS011;18679;45.190;5.722;2022-10-31T06:51:52;16.67;;;4.95;;
32172;SDS011;18679;45.190;5.722;2022-10-31T06:54:53;18.05;;;4.70;;
32172;SDS011;18679;45.190;5.722;2022-10-31T06:57:57;18.33;;;5.68;;
32172;SDS011;18679;45.190;5.722;2022-10-31T07:01:00;11.57;;;4.80;;
32172;SDS011;18679;45.190;5.722;2022-10-31T07:04:01;11.80;;;5.53;;
32172;SDS011;18679;45.190;5.722;2022-10-31T07:07:05;18.83;;;4.93;;
32172;SDS011;18679;45.190;5.722;2022-10-31T07:10:07;8.73;;;4.45;;
32172;SDS011;18679;45.190;5.722;2022-10-31T07:13:29;11.13;;;4.47;;
32172;SDS011;18679;45.190;5.722;2022-10-31T07:16:41;13.07;;;4.75;;
32172;SDS011;18679;45.190;5.722;2022-10-31T07:19:42;12.95;;;6.13;;
32172;SDS011;18679;45.190;5.722;2022-10-31T07:22:44;15.77;;;5.80;;
32172;SDS011;18679;45.190;5.722;2022-10-31T07:25:46;12.20;;;4.10;;
32172;SDS011;18679;45.190;5.722;2022-10-31T07:28:54;14.05;;;4.43;;
32172;SDS011;18679;45.190;5.722;2022-10-31T07:31:57;8.48;;;4.32;;
32172;SDS011;18679;45.190;5.722;2022-10-31T07:35:01;11.00;;;4.65;;
32172;SDS011;18679;45.190;5.722;2022-10-31T07:38:12;10.38;;;4.70;;
32172;SDS011;18679;45.190;5.722;2022-10-31T07:41:14;13.38;;;4.85;;
32172;SDS011;18679;45.190;5.722;2022-10-31T07:44:17;16.50;;;4.88;;
32172;SDS011;18679;45.190;5.722;2022-10-31T07:47:44;11.98;;;5.40;;
32172;SDS011;18679;45.190;5.722;2022-10-31T07:51:08;23.20;;;4.88;;
32172;SDS011;18679;45.190;5.722;2022-10-31T07:54:27;14.13;;;4.93;;
32172;SDS011;18679;45.190;5.722;2022-10-31T07:57:28;16.52;;;4.97;;
32172;SDS011;18679;45.190;5.722;2022-10-31T08:00:30;16.27;;;5.25;;
32172;SDS011;18679;45.190;5.722;2022-10-31T08:03:31;17.83;;;5.63;;
32172;SDS011;18679;45.190;5.722;2022-10-31T08:06:35;18.33;;;5.30;;
32172;SDS011;18679;45.190;5.722;2022-10-31T08:10:04;15.60;;;5.65;;
32172;SDS011;18679;45.190;5.722;2022-10-31T08:13:12;14.60;;;5.10;;
32172;SDS011;18679;45.190;5.722;2022-10-31T08:16:17;16.23;;;5.53;;
32172;SDS011;18679;45.190;5.722;2022-10-31T08:19:31;13.48;;;5.57;;
32172;SDS011;18679;45.190;5.722;2022-10-31T08:22:32;13.25;;;5.10;;
32172;SDS011;18679;45.190;5.722;2022-10-31T08:25:35;20.65;;;5.97;;
32172;SDS011;18679;45.190;5.722;2022-10-31T08:28:36;13.93;;;5.90;;
32172;SDS011;18679;45.190;5.722;2022-10-31T08:31:37;16.50;;;5.40;;
32172;SDS011;18679;45.190;5.722;2022-10-31T08:34:57;20.52;;;6.80;;
32172;SDS011;18679;45.190;5.722;2022-10-31T08:38:17;15.65;;;6.00;;
32172;SDS011;18679;45.190;5.722;2022-10-31T08:41:18;12.70;;;5.07;;
32172;SDS011;18679;45.190;5.722;2022-10-31T08:44:19;12.98;;;4.72;;
32172;SDS011;18679;45.190;5.722;2022-10-31T08:47:21;21.10;;;5.15;;
32172;SDS011;18679;45.190;5.722;2022-10-31T08:50:22;10.10;;;5.15;;
32172;SDS011;18679;45.190;5.722;2022-10-31T08:53:23;11.52;;;4.50;;
32172;SDS011;18679;45.190;5.722;2022-10-31T08:56:37;11.77;;;4.93;;
32172;SDS011;18679;45.190;5.722;2022-10-31T08:59:47;24.17;;;5.93;;
32172;SDS011;18679;45.190;5.722;2022-10-31T09:02:58;14.60;;;5.35;;
32172;SDS011;18679;45.190;5.722;2022-10-31T09:06:06;15.68;;;5.45;;
32172;SDS011;18679;45.190;5.722;2022-10-31T09:09:09;14.55;;;4.80;;
32172;SDS011;18679;45.190;5.722;2022-10-31T09:12:11;23.27;;;5.88;;
32172;SDS011;18679;45.190;5.722;2022-10-31T09:15:42;16.02;;;5.07;;
32172;SDS011;18679;45.190;5.722;2022-10-31T09:18:54;41.88;;;6.90;;
32172;SDS011;18679;45.190;5.722;2022-10-31T09:21:55;12.77;;;4.93;;
32172;SDS011;18679;45.190;5.722;2022-10-31T09:24:56;17.40;;;4.05;;
32172;SDS011;18679;45.190;5.722;2022-10-31T09:27:57;17.20;;;5.13;;
32172;SDS011;18679;45.190;5.722;2022-10-31T09:31:00;24.30;;;5.90;;
32172;SDS011;18679;45.190;5.722;2022-10-31T09:34:19;13.90;;;4.70;;
32172;SDS011;18679;45.190;5.722;2022-10-31T09:37:30;18.88;;;4.93;;
32172;SDS011;18679;45.190;5.722;2022-10-31T09:43:56;22.38;;;5.50;;
32172;SDS011;18679;45.190;5.722;2022-10-31T09:47:12;25.58;;;5.95;;
32172;SDS011;18679;45.190;5.722;2022-10-31T09:51:09;14.25;;;4.75;;
32172;SDS011;18679;45.190;5.722;2022-10-31T09:54:16;12.95;;;4.85;;
32172;SDS011;18679;45.190;5.722;2022-10-31T09:57:29;17.40;;;4.65;;
32172;SDS011;18679;45.190;5.722;2022-10-31T10:00:36;13.38;;;4.63;;
32172;SDS011;18679;45.190;5.722;2022-10-31T10:03:42;19.98;;;4.60;;
32172;SDS011;18679;45.190;5.722;2022-10-31T10:07:15;23.60;;;4.32;;
32172;SDS011;18679;45.190;5.722;2022-10-31T10:28:25;9.25;;;4.85;;
32172;SDS011;18679;45.190;5.722;2022-10-31T10:31:39;15.55;;;4.90;;
32172;SDS011;18679;45.190;5.722;2022-10-31T10:34:47;16.30;;;4.95;;
32172;SDS011;18679;45.190;5.722;2022-10-31T10:37:52;10.88;;;4.13;;
32172;SDS011;18679;45.190;5.722;2022-10-31T10:40:58;5.90;;;3.17;;
32172;SDS011;18679;45.190;5.722;2022-10-31T10:44:04;12.57;;;3.70;;
32172;SDS011;18679;45.190;5.722;2022-10-31T10:47:08;11.73;;;3.22;;
32172;SDS011;18679;45.190;5.722;2022-10-31T10:50:32;7.18;;;3.17;;
32172;SDS011;18679;45.190;5.722;2022-10-31T10:53:39;7.43;;;2.85;;
32172;SDS011;18679;45.190;5.722;2022-10-31T11:00:21;7.05;;;2.92;;
32172;SDS011;18679;45.190;5.722;2022-10-31T11:03:23;9.10;;;3.03;;
32172;SDS011;18679;45.190;5.722;2022-10-31T11:06:23;12.60;;;3.60;;
32172;SDS011;18679;45.190;5.722;2022-10-31T11:09:28;12.77;;;3.25;;
32172;SDS011;18679;45.190;5.722;2022-10-31T11:12:30;16.20;;;3.75;;
32172;SDS011;18679;45.190;5.722;2022-10-31T11:15:36;10.05;;;3.20;;
32172;SDS011;18679;45.190;5.722;2022-10-31T11:18:49;11.38;;;3.10;;
32172;SDS011;18679;45.190;5.722;2022-10-31T11:21:50;8.07;;;3.00;;
32172;SDS011;18679;45.190;5.722;2022-10-31T11:24:51;7.57;;;2.88;;
32172;SDS011;18679;45.190;5.722;2022-10-31T11:28:02;8.63;;;3.40;;
32172;SDS011;18679;45.190;5.722;2022-10-31T11:31:08;8.25;;;2.97;;
32172;SDS011;18679;45.190;5.722;2022-10-31T11:34:14;12.07;;;3.08;;
32172;SDS011;18679;45.190;5.722;2022-10-31T11:37:22;9.38;;;3.72;;
32172;SDS011;18679;45.190;5.722;2022-10-31T11:40:26;9.70;;;3.28;;
32172;SDS011;18679;45.190;5.722;2022-10-31T11:43:27;11.23;;;3.30;;
32172;SDS011;18679;45.190;5.722;2022-10-31T11:49:42;11.85;;;3.60;;
32172;SDS011;18679;45.190;5.722;2022-10-31T11:52:45;6.55;;;2.83;;
32172;SDS011;18679;45.190;5.722;2022-10-31T11:55:46;6.72;;;3.50;;
32172;SDS011;18679;45.190;5.722;2022-10-31T11:59:03;15.32;;;3.40;;
32172;SDS011;18679;45.190;5.722;2022-10-31T12:02:16;14.63;;;3.45;;
32172;SDS011;18679;45.190;5.722;2022-10-31T12:05:21;7.10;;;3.33;;
32172;SDS011;18679;45.190;5.722;2022-10-31T12:08:29;14.75;;;3.58;;
32172;SDS011;18679;45.190;5.722;2022-10-31T12:14:59;12.27;;;3.35;;
32172;SDS011;18679;45.190;5.722;2022-10-31T12:18:22;8.35;;;3.28;;
32172;SDS011;18679;45.190;5.722;2022-10-31T12:21:48;12.30;;;5.53;;
32172;SDS011;18679;45.190;5.722;2022-10-31T12:25:07;12.05;;;4.07;;
32172;SDS011;18679;45.190;5.722;2022-10-31T12:41:47;19.85;;;4.28;;
32172;SDS011;18679;45.190;5.722;2022-10-31T13:01:36;15.52;;;3.45;;
32172;SDS011;18679;45.190;5.722;2022-10-31T13:08:00;17.25;;;4.43;;
32172;SDS011;18679;45.190;5.722;2022-10-31T13:14:12;10.55;;;3.42;;
32172;SDS011;18679;45.190;5.722;2022-10-31T13:17:34;10.90;;;3.92;;
32172;SDS011;18679;45.190;5.722;2022-10-31T13:20:46;8.13;;;3.00;;
32172;SDS011;18679;45.190;5.722;2022-10-31T13:23:49;13.32;;;3.63;;
32172;SDS011;18679;45.190;5.722;2022-10-31T13:26:55;10.25;;;3.17;;
32172;SDS011;18679;45.190;5.722;2022-10-31T13:30:03;13.50;;;3.13;;
32172;SDS011;18679;45.190;5.722;2022-10-31T13:33:14;8.75;;;2.78;;
32172;SDS011;18679;45.190;5.722;2022-10-31T13:36:32;10.40;;;3.38;;
32172;SDS011;18679;45.190;5.722;2022-10-31T13:46:42;13.20;;;4.22;;
32172;SDS011;18679;45.190;5.722;2022-10-31T13:49:44;9.57;;;3.28;;
32172;SDS011;18679;45.190;5.722;2022-10-31T13:52:45;7.32;;;3.00;;
32172;SDS011;18679;45.190;5.722;2022-10-31T13:55:47;10.23;;;3.50;;
32172;SDS011;18679;45.190;5.722;2022-10-31T13:58:57;8.80;;;3.17;;
32172;SDS011;18679;45.190;5.722;2022-10-31T14:02:00;16.25;;;3.25;;
32172;SDS011;18679;45.190;5.722;2022-10-31T14:08:18;11.55;;;3.50;;
32172;SDS011;18679;45.190;5.722;2022-10-31T14:11:24;16.05;;;3.20;;
32172;SDS011;18679;45.190;5.722;2022-10-31T14:14:30;11.85;;;3.65;;
32172;SDS011;18679;45.190;5.722;2022-10-31T14:17:46;10.98;;;2.70;;
32172;SDS011;18679;45.190;5.722;2022-10-31T14:20:52;13.80;;;3.47;;
32172;SDS011;18679;45.190;5.722;2022-10-31T14:23:53;10.48;;;2.55;;
32172;SDS011;18679;45.190;5.722;2022-10-31T14:26:56;17.42;;;2.67;;
32172;SDS011;18679;45.190;5.722;2022-10-31T14:30:10;13.32;;;2.92;;
32172;SDS011;18679;45.190;5.722;2022-10-31T14:33:18;10.68;;;3.47;;
32172;SDS011;18679;45.190;5.722;2022-10-31T14:36:44;13.45;;;3.03;;
32172;SDS011;18679;45.190;5.722;2022-10-31T14:56:16;13.85;;;3.50;;
32172;SDS011;18679;45.190;5.722;2022-10-31T14:59:40;11.57;;;2.72;;
32172;SDS011;18679;45.190;5.722;2022-10-31T15:05:56;9.38;;;3.38;;
32172;SDS011;18679;45.190;5.722;2022-10-31T15:09:01;13.52;;;2.65;;
32172;SDS011;18679;45.190;5.722;2022-10-31T15:12:20;9.23;;;2.53;;
32172;SDS011;18679;45.190;5.722;2022-10-31T15:15:26;13.13;;;3.35;;
32172;SDS011;18679;45.190;5.722;2022-10-31T15:18:27;16.80;;;2.80;;
32172;SDS011;18679;45.190;5.722;2022-10-31T15:21:29;10.60;;;2.72;;
32172;SDS011;18679;45.190;5.722;2022-10-31T15:24:32;7.20;;;2.80;;
32172;SDS011;18679;45.190;5.722;2022-10-31T15:27:35;11.45;;;2.90;;
32172;SDS011;18679;45.190;5.722;2022-10-31T15:30:48;13.98;;;2.92;;
32172;SDS011;18679;45.190;5.722;2022-10-31T15:33:53;9.93;;;2.75;;
32172;SDS011;18679;45.190;5.722;2022-10-31T15:36:57;9.02;;;2.92;;
32172;SDS011;18679;45.190;5.722;2022-10-31T15:40:05;13.45;;;3.20;;
32172;SDS011;18679;45.190;5.722;2022-10-31T15:43:10;17.70;;;3.72;;
32172;SDS011;18679;45.190;5.722;2022-10-31T15:46:15;9.82;;;3.50;;
32172;SDS011;18679;45.190;5.722;2022-10-31T15:49:21;10.48;;;2.97;;
32172;SDS011;18679;45.190;5.722;2022-10-31T15:52:29;9.15;;;3.10;;
32172;SDS011;18679;45.190;5.722;2022-10-31T15:55:38;10.02;;;3.90;;
32172;SDS011;18679;45.190;5.722;2022-10-31T15:58:57;8.23;;;2.80;;
32172;SDS011;18679;45.190;5.722;2022-10-31T16:02:01;8.32;;;3.10;;
32172;SDS011;18679;45.190;5.722;2022-10-31T16:05:14;10.25;;;2.90;;
32172;SDS011;18679;45.190;5.722;2022-10-31T16:08:24;12.68;;;2.67;;
32172;SDS011;18679;45.190;5.722;2022-10-31T16:14:33;15.02;;;3.30;;
32172;SDS011;18679;45.190;5.722;2022-10-31T16:17:40;13.18;;;2.90;;
32172;SDS011;18679;45.190;5.722;2022-10-31T16:20:48;9.25;;;2.85;;
32172;SDS011;18679;45.190;5.722;2022-10-31T16:23:53;9.20;;;2.95;;
32172;SDS011;18679;45.190;5.722;2022-10-31T16:27:15;9.70;;;3.85;;
32172;SDS011;18679;45.190;5.722;2022-10-31T16:33:32;12.27;;;3.20;;
32172;SDS011;18679;45.190;5.722;2022-10-31T16:36:38;7.50;;;2.80;;
32172;SDS011;18679;45.190;5.722;2022-10-31T16:39:39;7.40;;;2.90;;
32172;SDS011;18679;45.190;5.722;2022-10-31T16:42:40;14.55;;;3.50;;
32172;SDS011;18679;45.190;5.722;2022-10-31T16:45:43;9.48;;;3.80;;
32172;SDS011;18679;45.190;5.722;2022-10-31T16:48:48;8.55;;;3.50;;
32172;SDS011;18679;45.190;5.722;2022-10-31T16:51:49;10.60;;;3.05;;
32172;SDS011;18679;45.190;5.722;2022-10-31T16:54:50;7.75;;;3.05;;
32172;SDS011;18679;45.190;5.722;2022-10-31T16:57:52;12.85;;;3.60;;
32172;SDS011;18679;45.190;5.722;2022-10-31T17:00:56;14.80;;;3.67;;
32172;SDS011;18679;45.190;5.722;2022-10-31T17:03:57;13.13;;;3.78;;
32172;SDS011;18679;45.190;5.722;2022-10-31T17:06:58;11.73;;;3.65;;
32172;SDS011;18679;45.190;5.722;2022-10-31T17:09:58;16.55;;;3.25;;
32172;SDS011;18679;45.190;5.722;2022-10-31T17:13:00;11.82;;;3.30;;
32172;SDS011;18679;45.190;5.722;2022-10-31T17:16:03;14.63;;;3.70;;
32172;SDS011;18679;45.190;5.722;2022-10-31T17:19:04;8.48;;;3.30;;
32172;SDS011;18679;45.190;5.722;2022-10-31T17:22:05;12.95;;;3.63;;
32172;SDS011;18679;45.190;5.722;2022-10-31T17:25:07;13.30;;;3.83;;
32172;SDS011;18679;45.190;5.722;2022-10-31T17:28:13;10.07;;;3.92;;
32172;SDS011;18679;45.190;5.722;2022-10-31T17:31:24;18.02;;;3.72;;
32172;SDS011;18679;45.190;5.722;2022-10-31T17:34:31;13.48;;;3.95;;
32172;SDS011;18679;45.190;5.722;2022-10-31T17:37:32;10.57;;;3.50;;
32172;SDS011;18679;45.190;5.722;2022-10-31T17:40:33;8.43;;;3.55;;
32172;SDS011;18679;45.190;5.722;2022-10-31T17:43:36;14.43;;;4.60;;
32172;SDS011;18679;45.190;5.722;2022-10-31T17:46:37;6.65;;;3.25;;
32172;SDS011;18679;45.190;5.722;2022-10-31T17:49:38;15.55;;;3.35;;
32172;SDS011;18679;45.190;5.722;2022-10-31T17:52:39;12.05;;;3.50;;
32172;SDS011;18679;45.190;5.722;2022-10-31T17:55:40;13.35;;;3.88;;
32172;SDS011;18679;45.190;5.722;2022-10-31T17:58:41;13.07;;;3.80;;
32172;SDS011;18679;45.190;5.722;2022-10-31T18:01:42;12.85;;;4.38;;
32172;SDS011;18679;45.190;5.722;2022-10-31T18:04:43;15.05;;;4.30;;
32172;SDS011;18679;45.190;5.722;2022-10-31T18:07:43;9.85;;;3.67;;
32172;SDS011;18679;45.190;5.722;2022-10-31T18:10:48;16.58;;;4.35;;
32172;SDS011;18679;45.190;5.722;2022-10-31T18:13:55;11.48;;;3.80;;
32172;SDS011;18679;45.190;5.722;2022-10-31T18:16:57;12.43;;;3.65;;
32172;SDS011;18679;45.190;5.722;2022-10-31T18:19:58;12.82;;;4.22;;
32172;SDS011;18679;45.190;5.722;2022-10-31T18:22:59;14.60;;;4.88;;
32172;SDS011;18679;45.190;5.722;2022-10-31T18:25:59;11.93;;;3.88;;
32172;SDS011;18679;45.190;5.722;2022-10-31T18:29:01;22.17;;;4.70;;
32172;SDS011;18679;45.190;5.722;2022-10-31T18:32:03;14.75;;;4.00;;
32172;SDS011;18679;45.190;5.722;2022-10-31T18:35:06;13.55;;;4.50;;
32172;SDS011;18679;45.190;5.722;2022-10-31T18:38:07;14.70;;;5.45;;
32172;SDS011;18679;45.190;5.722;2022-10-31T18:41:08;20.08;;;5.78;;
32172;SDS011;18679;45.190;5.722;2022-10-31T18:44:09;15.95;;;5.00;;
32172;SDS011;18679;45.190;5.722;2022-10-31T18:47:10;15.55;;;4.47;;
32172;SDS011;18679;45.190;5.722;2022-10-31T18:50:11;12.63;;;4.63;;
32172;SDS011;18679;45.190;5.722;2022-10-31T18:53:12;14.40;;;5.32;;
32172;SDS011;18679;45.190;5.722;2022-10-31T18:56:13;17.85;;;5.60;;
32172;SDS011;18679;45.190;5.722;2022-10-31T18:59:14;15.52;;;4.88;;
32172;SDS011;18679;45.190;5.722;2022-10-31T19:02:15;18.70;;;6.43;;
32172;SDS011;18679;45.190;5.722;2022-10-31T19:05:17;11.95;;;4.93;;
32172;SDS011;18679;45.190;5.722;2022-10-31T19:08:18;14.90;;;5.28;;
32172;SDS011;18679;45.190;5.722;2022-10-31T19:11:19;13.77;;;4.63;;
32172;SDS011;18679;45.190;5.722;2022-10-31T19:14:20;10.93;;;5.07;;
32172;SDS011;18679;45.190;5.722;2022-10-31T19:17:22;20.83;;;6.25;;
32172;SDS011;18679;45.190;5.722;2022-10-31T19:20:26;12.40;;;4.32;;
32172;SDS011;18679;45.190;5.722;2022-10-31T19:23:27;13.57;;;4.00;;
32172;SDS011;18679;45.190;5.722;2022-10-31T19:26:28;12.95;;;4.60;;
32172;SDS011;18679;45.190;5.722;2022-10-31T19:29:29;15.10;;;4.60;;
32172;SDS011;18679;45.190;5.722;2022-10-31T19:32:30;14.73;;;4.82;;
32172;SDS011;18679;45.190;5.722;2022-10-31T19:35:31;14.98;;;5.07;;
32172;SDS011;18679;45.190;5.722;2022-10-31T19:38:32;17.33;;;4.50;;
32172;SDS011;18679;45.190;5.722;2022-10-31T19:41:34;11.32;;;3.58;;
32172;SDS011;18679;45.190;5.722;2022-10-31T19:44:35;19.05;;;4.35;;
32172;SDS011;18679;45.190;5.722;2022-10-31T19:47:36;14.70;;;3.38;;
32172;SDS011;18679;45.190;5.722;2022-10-31T19:50:36;5.60;;;2.80;;
32172;SDS011;18679;45.190;5.722;2022-10-31T19:53:38;6.30;;;2.70;;
32172;SDS011;18679;45.190;5.722;2022-10-31T19:56:39;14.25;;;5.25;;
32172;SDS011;18679;45.190;5.722;2022-10-31T19:59:40;6.20;;;3.38;;
32172;SDS011;18679;45.190;5.722;2022-10-31T20:02:41;12.60;;;2.72;;
32172;SDS011;18679;45.190;5.722;2022-10-31T20:05:42;10.05;;;3.30;;
32172;SDS011;18679;45.190;5.722;2022-10-31T20:08:44;11.40;;;2.42;;
32172;SDS011;18679;45.190;5.722;2022-10-31T20:11:45;11.23;;;2.80;;
32172;SDS011;18679;45.190;5.722;2022-10-31T20:14:47;6.75;;;2.58;;
32172;SDS011;18679;45.190;5.722;2022-10-31T20:17:49;10.30;;;2.85;;
32172;SDS011;18679;45.190;5.722;2022-10-31T20:20:50;5.70;;;2.63;;
32172;SDS011;18679;45.190;5.722;2022-10-31T20:23:55;5.82;;;2.35;;
32172;SDS011;18679;45.190;5.722;2022-10-31T20:26:57;10.48;;;2.22;;
32172;SDS011;18679;45.190;5.722;2022-10-31T20:29:58;6.07;;;2.22;;
32172;SDS011;18679;45.190;5.722;2022-10-31T20:32:59;17.15;;;3.97;;
32172;SDS011;18679;45.190;5.722;2022-10-31T20:36:02;15.52;;;2.33;;
32172;SDS011;18679;45.190;5.722;2022-10-31T20:39:03;6.80;;;1.90;;
32172;SDS011;18679;45.190;5.722;2022-10-31T20:42:05;9.65;;;1.60;;
32172;SDS011;18679;45.190;5.722;2022-10-31T20:45:06;7.32;;;1.65;;